sensor_id;sensor_type;location;lat;lon;timestamp;P1;durP1;ratioP1;P2;durP2;ratioP2
67981;SDS011;64109;52.148;4.466;2023-02-01T00:00:12;6.25;;;1.58;;
67981;SDS011;64109;52.148;4.466;2023-02-01T00:02:38;8.00;;;2.13;;
67981;SDS011;64109;52.148;4.466;2023-02-01T00:05:06;5.07;;;1.60;;
67981;SDS011;64109;52.148;4.466;2023-02-01T00:07:33;7.10;;;2.03;;
67981;SDS011;64109;52.148;4.466;2023-02-01T00:09:59;7.20;;;1.50;;
67981;SDS011;64109;52.148;4.466;2023-02-01T00:12:25;7.18;;;2.70;;
67981;SDS011;64109;52.148;4.466;2023-02-01T00:14:51;5.55;;;1.35;;
67981;SDS011;64109;52.148;4.466;2023-02-01T00:17:17;7.88;;;1.75;;
67981;SDS011;64109;52.148;4.466;2023-02-01T00:19:43;5.88;;;2.80;;
67981;SDS011;64109;52.148;4.466;2023-02-01T00:22:09;11.20;;;2.33;;
67981;SDS011;64109;52.148;4.466;2023-02-01T00:24:35;7.82;;;1.77;;
67981;SDS011;64109;52.148;4.466;2023-02-01T00:27:01;8.45;;;1.77;;
67981;SDS011;64109;52.148;4.466;2023-02-01T00:29:27;8.23;;;1.50;;
67981;SDS011;64109;52.148;4.466;2023-02-01T00:31:53;9.90;;;1.73;;
67981;SDS011;64109;52.148;4.466;2023-02-01T00:34:19;6.80;;;1.75;;
67981;SDS011;64109;52.148;4.466;2023-02-01T00:36:45;6.35;;;1.48;;
67981;SDS011;64109;52.148;4.466;2023-02-01T00:39:12;6.75;;;1.20;;
67981;SDS011;64109;52.148;4.466;2023-02-01T00:41:38;7.45;;;1.67;;
67981;SDS011;64109;52.148;4.466;2023-02-01T00:44:05;6.57;;;1.35;;
67981;SDS011;64109;52.148;4.466;2023-02-01T00:46:31;5.55;;;1.65;;
67981;SDS011;64109;52.148;4.466;2023-02-01T00:48:57;7.10;;;1.65;;
67981;SDS011;64109;52.148;4.466;2023-02-01T00:51:25;7.40;;;1.73;;
67981;SDS011;64109;52.148;4.466;2023-02-01T00:53:51;8.20;;;1.90;;
67981;SDS011;64109;52.148;4.466;2023-02-01T00:56:17;7.30;;;1.70;;
67981;SDS011;64109;52.148;4.466;2023-02-01T00:58:43;7.22;;;1.40;;
67981;SDS011;64109;52.148;4.466;2023-02-01T01:01:14;7.15;;;1.50;;
67981;SDS011;64109;52.148;4.466;2023-02-01T01:03:42;7.65;;;1.90;;
67981;SDS011;64109;52.148;4.466;2023-02-01T01:06:10;7.78;;;1.73;;
67981;SDS011;64109;52.148;4.466;2023-02-01T01:08:36;7.43;;;1.70;;
67981;SDS011;64109;52.148;4.466;2023-02-01T01:11:45;10.85;;;2.15;;
67981;SDS011;64109;52.148;4.466;2023-02-01T01:13:52;6.63;;;1.45;;
67981;SDS011;64109;52.148;4.466;2023-02-01T01:16:19;7.30;;;1.42;;
67981;SDS011;64109;52.148;4.466;2023-02-01T01:18:46;8.02;;;1.67;;
67981;SDS011;64109;52.148;4.466;2023-02-01T01:21:13;8.90;;;2.08;;
67981;SDS011;64109;52.148;4.466;2023-02-01T01:23:39;6.97;;;1.70;;
67981;SDS011;64109;52.148;4.466;2023-02-01T01:26:10;6.25;;;1.38;;
67981;SDS011;64109;52.148;4.466;2023-02-01T01:28:36;6.75;;;1.50;;
67981;SDS011;64109;52.148;4.466;2023-02-01T01:31:02;9.40;;;1.77;;
67981;SDS011;64109;52.148;4.466;2023-02-01T01:33:28;7.28;;;2.53;;
67981;SDS011;64109;52.148;4.466;2023-02-01T01:35:54;9.55;;;1.48;;
67981;SDS011;64109;52.148;4.466;2023-02-01T01:38:20;4.60;;;1.27;;
67981;SDS011;64109;52.148;4.466;2023-02-01T01:40:46;7.97;;;2.60;;
67981;SDS011;64109;52.148;4.466;2023-02-01T01:43:15;8.15;;;1.80;;
67981;SDS011;64109;52.148;4.466;2023-02-01T01:45:41;7.32;;;1.73;;
67981;SDS011;64109;52.148;4.466;2023-02-01T01:48:16;6.88;;;1.67;;
67981;SDS011;64109;52.148;4.466;2023-02-01T01:50:46;9.32;;;1.80;;
67981;SDS011;64109;52.148;4.466;2023-02-01T01:53:13;5.47;;;1.83;;
67981;SDS011;64109;52.148;4.466;2023-02-01T01:55:42;6.05;;;1.55;;
67981;SDS011;64109;52.148;4.466;2023-02-01T01:58:10;6.35;;;1.83;;
67981;SDS011;64109;52.148;4.466;2023-02-01T02:00:37;7.13;;;1.75;;
67981;SDS011;64109;52.148;4.466;2023-02-01T02:03:46;8.48;;;2.00;;
67981;SDS011;64109;52.148;4.466;2023-02-01T02:05:54;9.90;;;1.85;;
67981;SDS011;64109;52.148;4.466;2023-02-01T02:08:21;4.90;;;1.50;;
67981;SDS011;64109;52.148;4.466;2023-02-01T02:10:48;9.02;;;1.83;;
67981;SDS011;64109;52.148;4.466;2023-02-01T02:13:36;9.45;;;2.55;;
67981;SDS011;64109;52.148;4.466;2023-02-01T02:21:15;7.47;;;1.55;;
67981;SDS011;64109;52.148;4.466;2023-02-01T02:42:14;7.97;;;1.73;;
67981;SDS011;64109;52.148;4.466;2023-02-01T02:45:13;7.18;;;1.58;;
67981;SDS011;64109;52.148;4.466;2023-02-01T02:50:43;7.30;;;1.83;;
67981;SDS011;64109;52.148;4.466;2023-02-01T02:53:34;7.20;;;1.90;;
67981;SDS011;64109;52.148;4.466;2023-02-01T02:56:20;9.23;;;1.95;;
67981;SDS011;64109;52.148;4.466;2023-02-01T02:59:06;6.93;;;1.55;;
67981;SDS011;64109;52.148;4.466;2023-02-01T03:01:51;8.27;;;1.88;;
67981;SDS011;64109;52.148;4.466;2023-02-01T03:04:36;9.30;;;1.70;;
67981;SDS011;64109;52.148;4.466;2023-02-01T03:07:11;6.00;;;1.60;;
67981;SDS011;64109;52.148;4.466;2023-02-01T03:09:37;10.77;;;1.70;;
67981;SDS011;64109;52.148;4.466;2023-02-01T03:12:07;6.70;;;1.88;;
67981;SDS011;64109;52.148;4.466;2023-02-01T03:14:55;7.90;;;1.55;;
67981;SDS011;64109;52.148;4.466;2023-02-01T03:17:24;8.75;;;1.60;;
67981;SDS011;64109;52.148;4.466;2023-02-01T03:19:51;11.20;;;2.30;;
67981;SDS011;64109;52.148;4.466;2023-02-01T03:22:20;7.70;;;2.25;;
67981;SDS011;64109;52.148;4.466;2023-02-01T03:24:48;8.20;;;2.08;;
67981;SDS011;64109;52.148;4.466;2023-02-01T03:32:18;6.85;;;1.98;;
67981;SDS011;64109;52.148;4.466;2023-02-01T03:34:45;6.57;;;1.75;;
67981;SDS011;64109;52.148;4.466;2023-02-01T03:37:12;5.85;;;1.75;;
67981;SDS011;64109;52.148;4.466;2023-02-01T03:39:48;6.53;;;1.75;;
67981;SDS011;64109;52.148;4.466;2023-02-01T03:42:18;7.80;;;1.60;;
67981;SDS011;64109;52.148;4.466;2023-02-01T03:47:19;6.90;;;1.48;;
67981;SDS011;64109;52.148;4.466;2023-02-01T03:49:50;10.32;;;1.92;;
67981;SDS011;64109;52.148;4.466;2023-02-01T03:52:22;7.43;;;1.65;;
67981;SDS011;64109;52.148;4.466;2023-02-01T03:54:49;7.85;;;2.88;;
67981;SDS011;64109;52.148;4.466;2023-02-01T03:57:16;7.75;;;1.50;;
67981;SDS011;64109;52.148;4.466;2023-02-01T03:59:45;7.00;;;1.77;;
67981;SDS011;64109;52.148;4.466;2023-02-01T04:02:11;7.07;;;1.70;;
67981;SDS011;64109;52.148;4.466;2023-02-01T04:04:37;7.32;;;1.58;;
67981;SDS011;64109;52.148;4.466;2023-02-01T04:07:03;7.30;;;1.80;;
67981;SDS011;64109;52.148;4.466;2023-02-01T04:09:29;9.38;;;1.85;;
67981;SDS011;64109;52.148;4.466;2023-02-01T04:11:56;7.55;;;1.95;;
67981;SDS011;64109;52.148;4.466;2023-02-01T04:14:21;6.05;;;1.70;;
67981;SDS011;64109;52.148;4.466;2023-02-01T04:16:47;8.73;;;2.53;;
67981;SDS011;64109;52.148;4.466;2023-02-01T04:19:13;7.93;;;1.60;;
67981;SDS011;64109;52.148;4.466;2023-02-01T04:21:39;9.68;;;2.28;;
67981;SDS011;64109;52.148;4.466;2023-02-01T04:24:05;7.68;;;1.98;;
67981;SDS011;64109;52.148;4.466;2023-02-01T04:26:32;9.00;;;1.83;;
67981;SDS011;64109;52.148;4.466;2023-02-01T04:28:58;9.23;;;2.15;;
67981;SDS011;64109;52.148;4.466;2023-02-01T04:31:23;6.63;;;1.33;;
67981;SDS011;64109;52.148;4.466;2023-02-01T04:33:53;5.47;;;1.50;;
67981;SDS011;64109;52.148;4.466;2023-02-01T04:36:19;8.95;;;2.30;;
67981;SDS011;64109;52.148;4.466;2023-02-01T04:38:49;7.35;;;1.85;;
67981;SDS011;64109;52.148;4.466;2023-02-01T04:41:15;8.82;;;1.73;;
67981;SDS011;64109;52.148;4.466;2023-02-01T04:43:44;7.18;;;1.60;;
67981;SDS011;64109;52.148;4.466;2023-02-01T04:46:10;6.05;;;1.42;;
67981;SDS011;64109;52.148;4.466;2023-02-01T04:48:36;9.95;;;2.05;;
67981;SDS011;64109;52.148;4.466;2023-02-01T04:51:02;6.15;;;1.73;;
67981;SDS011;64109;52.148;4.466;2023-02-01T04:53:28;6.15;;;2.70;;
67981;SDS011;64109;52.148;4.466;2023-02-01T04:55:54;9.27;;;1.83;;
67981;SDS011;64109;52.148;4.466;2023-02-01T04:58:20;7.72;;;2.20;;
67981;SDS011;64109;52.148;4.466;2023-02-01T05:00:46;7.05;;;1.70;;
67981;SDS011;64109;52.148;4.466;2023-02-01T05:03:12;7.50;;;1.65;;
67981;SDS011;64109;52.148;4.466;2023-02-01T05:05:38;7.10;;;1.73;;
67981;SDS011;64109;52.148;4.466;2023-02-01T05:08:04;7.43;;;2.50;;
67981;SDS011;64109;52.148;4.466;2023-02-01T05:10:30;6.30;;;1.70;;
67981;SDS011;64109;52.148;4.466;2023-02-01T05:12:56;9.57;;;1.70;;
67981;SDS011;64109;52.148;4.466;2023-02-01T05:15:41;9.38;;;2.42;;
67981;SDS011;64109;52.148;4.466;2023-02-01T05:18:07;7.43;;;2.10;;
67981;SDS011;64109;52.148;4.466;2023-02-01T05:20:33;7.50;;;1.67;;
67981;SDS011;64109;52.148;4.466;2023-02-01T05:22:59;6.43;;;2.03;;
67981;SDS011;64109;52.148;4.466;2023-02-01T05:25:25;8.15;;;1.67;;
67981;SDS011;64109;52.148;4.466;2023-02-01T05:27:52;8.95;;;2.40;;
67981;SDS011;64109;52.148;4.466;2023-02-01T05:30:18;6.28;;;1.80;;
67981;SDS011;64109;52.148;4.466;2023-02-01T05:32:44;7.78;;;2.00;;
67981;SDS011;64109;52.148;4.466;2023-02-01T05:35:10;9.60;;;2.20;;
67981;SDS011;64109;52.148;4.466;2023-02-01T05:37:36;5.65;;;1.55;;
67981;SDS011;64109;52.148;4.466;2023-02-01T05:40:02;6.53;;;1.65;;
67981;SDS011;64109;52.148;4.466;2023-02-01T05:42:28;5.68;;;1.75;;
67981;SDS011;64109;52.148;4.466;2023-02-01T05:44:54;5.75;;;1.80;;
67981;SDS011;64109;52.148;4.466;2023-02-01T05:47:20;7.90;;;1.73;;
67981;SDS011;64109;52.148;4.466;2023-02-01T05:49:46;8.05;;;1.52;;
67981;SDS011;64109;52.148;4.466;2023-02-01T05:52:12;8.48;;;2.33;;
67981;SDS011;64109;52.148;4.466;2023-02-01T05:54:38;8.57;;;2.45;;
67981;SDS011;64109;52.148;4.466;2023-02-01T05:57:04;8.48;;;1.70;;
67981;SDS011;64109;52.148;4.466;2023-02-01T05:59:30;9.32;;;2.28;;
67981;SDS011;64109;52.148;4.466;2023-02-01T06:01:56;7.10;;;1.63;;
67981;SDS011;64109;52.148;4.466;2023-02-01T06:04:22;7.88;;;1.70;;
67981;SDS011;64109;52.148;4.466;2023-02-01T06:06:48;7.22;;;2.97;;
67981;SDS011;64109;52.148;4.466;2023-02-01T06:09:15;9.32;;;2.17;;
67981;SDS011;64109;52.148;4.466;2023-02-01T06:11:41;7.57;;;2.88;;
67981;SDS011;64109;52.148;4.466;2023-02-01T06:14:07;6.93;;;1.90;;
67981;SDS011;64109;52.148;4.466;2023-02-01T06:16:33;5.95;;;1.83;;
67981;SDS011;64109;52.148;4.466;2023-02-01T06:18:59;6.30;;;1.80;;
67981;SDS011;64109;52.148;4.466;2023-02-01T06:21:25;6.18;;;1.70;;
67981;SDS011;64109;52.148;4.466;2023-02-01T06:23:52;7.18;;;1.45;;
67981;SDS011;64109;52.148;4.466;2023-02-01T06:26:18;6.03;;;1.52;;
67981;SDS011;64109;52.148;4.466;2023-02-01T06:28:44;6.25;;;1.30;;
67981;SDS011;64109;52.148;4.466;2023-02-01T06:31:10;7.05;;;1.70;;
67981;SDS011;64109;52.148;4.466;2023-02-01T06:33:37;7.35;;;1.67;;
67981;SDS011;64109;52.148;4.466;2023-02-01T06:36:04;7.50;;;2.42;;
67981;SDS011;64109;52.148;4.466;2023-02-01T06:38:31;6.95;;;2.78;;
67981;SDS011;64109;52.148;4.466;2023-02-01T06:40:59;6.57;;;1.65;;
67981;SDS011;64109;52.148;4.466;2023-02-01T06:43:26;7.93;;;1.63;;
67981;SDS011;64109;52.148;4.466;2023-02-01T06:45:52;6.80;;;2.97;;
67981;SDS011;64109;52.148;4.466;2023-02-01T06:48:18;6.22;;;1.90;;
67981;SDS011;64109;52.148;4.466;2023-02-01T06:50:45;6.78;;;1.70;;
67981;SDS011;64109;52.148;4.466;2023-02-01T06:53:10;8.48;;;1.65;;
67981;SDS011;64109;52.148;4.466;2023-02-01T06:55:36;8.43;;;1.73;;
67981;SDS011;64109;52.148;4.466;2023-02-01T06:58:02;6.75;;;2.65;;
67981;SDS011;64109;52.148;4.466;2023-02-01T07:00:29;7.18;;;2.13;;
67981;SDS011;64109;52.148;4.466;2023-02-01T07:02:56;7.57;;;1.65;;
67981;SDS011;64109;52.148;4.466;2023-02-01T07:05:24;6.75;;;1.83;;
67981;SDS011;64109;52.148;4.466;2023-02-01T07:07:50;6.18;;;1.85;;
67981;SDS011;64109;52.148;4.466;2023-02-01T07:10:16;7.55;;;2.20;;
67981;SDS011;64109;52.148;4.466;2023-02-01T07:12:42;6.47;;;1.60;;
67981;SDS011;64109;52.148;4.466;2023-02-01T07:15:08;7.03;;;2.10;;
67981;SDS011;64109;52.148;4.466;2023-02-01T07:17:34;8.77;;;2.10;;
67981;SDS011;64109;52.148;4.466;2023-02-01T07:20:00;9.52;;;2.15;;
67981;SDS011;64109;52.148;4.466;2023-02-01T07:22:26;8.93;;;1.63;;
67981;SDS011;64109;52.148;4.466;2023-02-01T07:24:52;8.15;;;1.70;;
67981;SDS011;64109;52.148;4.466;2023-02-01T07:27:18;5.68;;;1.55;;
67981;SDS011;64109;52.148;4.466;2023-02-01T07:29:45;7.18;;;1.83;;
67981;SDS011;64109;52.148;4.466;2023-02-01T07:32:11;7.13;;;2.55;;
67981;SDS011;64109;52.148;4.466;2023-02-01T07:34:37;5.57;;;1.67;;
67981;SDS011;64109;52.148;4.466;2023-02-01T07:37:03;4.07;;;1.33;;
67981;SDS011;64109;52.148;4.466;2023-02-01T07:39:29;7.97;;;1.67;;
67981;SDS011;64109;52.148;4.466;2023-02-01T07:41:56;6.07;;;2.92;;
67981;SDS011;64109;52.148;4.466;2023-02-01T07:44:22;4.75;;;1.30;;
67981;SDS011;64109;52.148;4.466;2023-02-01T07:46:49;7.85;;;1.50;;
67981;SDS011;64109;52.148;4.466;2023-02-01T07:49:15;8.25;;;1.58;;
67981;SDS011;64109;52.148;4.466;2023-02-01T07:51:42;6.32;;;1.70;;
67981;SDS011;64109;52.148;4.466;2023-02-01T07:54:08;5.22;;;1.75;;
67981;SDS011;64109;52.148;4.466;2023-02-01T07:56:34;6.53;;;1.60;;
67981;SDS011;64109;52.148;4.466;2023-02-01T07:59:00;6.35;;;2.58;;
67981;SDS011;64109;52.148;4.466;2023-02-01T08:01:27;4.07;;;1.40;;
67981;SDS011;64109;52.148;4.466;2023-02-01T08:03:54;6.20;;;1.50;;
67981;SDS011;64109;52.148;4.466;2023-02-01T08:06:21;7.95;;;1.48;;
67981;SDS011;64109;52.148;4.466;2023-02-01T08:08:48;7.43;;;2.00;;
67981;SDS011;64109;52.148;4.466;2023-02-01T08:11:14;8.18;;;1.67;;
67981;SDS011;64109;52.148;4.466;2023-02-01T08:13:41;9.07;;;1.92;;
67981;SDS011;64109;52.148;4.466;2023-02-01T08:16:08;6.93;;;2.17;;
67981;SDS011;64109;52.148;4.466;2023-02-01T08:18:34;6.25;;;1.75;;
67981;SDS011;64109;52.148;4.466;2023-02-01T08:21:08;8.52;;;1.63;;
67981;SDS011;64109;52.148;4.466;2023-02-01T08:23:34;6.43;;;1.85;;
67981;SDS011;64109;52.148;4.466;2023-02-01T08:26:20;8.98;;;2.17;;
67981;SDS011;64109;52.148;4.466;2023-02-01T08:28:48;6.07;;;1.70;;
67981;SDS011;64109;52.148;4.466;2023-02-01T08:31:15;13.02;;;2.35;;
67981;SDS011;64109;52.148;4.466;2023-02-01T08:33:41;8.25;;;1.88;;
67981;SDS011;64109;52.148;4.466;2023-02-01T08:36:09;7.57;;;2.40;;
67981;SDS011;64109;52.148;4.466;2023-02-01T08:38:35;10.73;;;2.25;;
67981;SDS011;64109;52.148;4.466;2023-02-01T08:41:05;8.52;;;2.65;;
67981;SDS011;64109;52.148;4.466;2023-02-01T08:43:31;6.82;;;1.65;;
67981;SDS011;64109;52.148;4.466;2023-02-01T08:45:57;11.90;;;1.98;;
67981;SDS011;64109;52.148;4.466;2023-02-01T08:48:23;6.38;;;1.70;;
67981;SDS011;64109;52.148;4.466;2023-02-01T08:50:49;6.35;;;1.67;;
67981;SDS011;64109;52.148;4.466;2023-02-01T08:53:15;6.38;;;2.08;;
67981;SDS011;64109;52.148;4.466;2023-02-01T08:55:41;8.63;;;2.38;;
67981;SDS011;64109;52.148;4.466;2023-02-01T08:58:07;6.50;;;1.88;;
67981;SDS011;64109;52.148;4.466;2023-02-01T09:00:33;8.55;;;1.70;;
67981;SDS011;64109;52.148;4.466;2023-02-01T09:02:59;9.85;;;1.95;;
67981;SDS011;64109;52.148;4.466;2023-02-01T09:05:25;8.25;;;1.80;;
67981;SDS011;64109;52.148;4.466;2023-02-01T09:07:52;9.57;;;2.08;;
67981;SDS011;64109;52.148;4.466;2023-02-01T09:10:19;8.80;;;1.80;;
67981;SDS011;64109;52.148;4.466;2023-02-01T09:12:45;7.20;;;2.05;;
67981;SDS011;64109;52.148;4.466;2023-02-01T09:15:10;6.65;;;2.80;;
67981;SDS011;64109;52.148;4.466;2023-02-01T09:17:36;6.40;;;1.80;;
67981;SDS011;64109;52.148;4.466;2023-02-01T09:20:03;7.80;;;1.73;;
67981;SDS011;64109;52.148;4.466;2023-02-01T09:22:29;9.68;;;2.22;;
67981;SDS011;64109;52.148;4.466;2023-02-01T09:24:55;8.23;;;1.60;;
67981;SDS011;64109;52.148;4.466;2023-02-01T09:27:21;9.00;;;1.70;;
67981;SDS011;64109;52.148;4.466;2023-02-01T09:29:48;5.47;;;1.77;;
67981;SDS011;64109;52.148;4.466;2023-02-01T09:32:17;6.18;;;1.65;;
67981;SDS011;64109;52.148;4.466;2023-02-01T09:34:43;9.35;;;2.28;;
67981;SDS011;64109;52.148;4.466;2023-02-01T09:37:09;6.68;;;1.98;;
67981;SDS011;64109;52.148;4.466;2023-02-01T09:39:35;8.50;;;1.77;;
67981;SDS011;64109;52.148;4.466;2023-02-01T09:47:39;6.90;;;1.88;;
67981;SDS011;64109;52.148;4.466;2023-02-01T09:50:13;6.65;;;1.63;;
67981;SDS011;64109;52.148;4.466;2023-02-01T09:52:46;6.18;;;2.08;;
67981;SDS011;64109;52.148;4.466;2023-02-01T09:55:18;7.80;;;1.75;;
67981;SDS011;64109;52.148;4.466;2023-02-01T09:57:53;9.85;;;1.80;;
67981;SDS011;64109;52.148;4.466;2023-02-01T10:00:29;5.85;;;1.58;;
67981;SDS011;64109;52.148;4.466;2023-02-01T10:02:55;6.63;;;2.65;;
67981;SDS011;64109;52.148;4.466;2023-02-01T10:05:47;8.32;;;2.15;;
67981;SDS011;64109;52.148;4.466;2023-02-01T10:10:49;6.60;;;1.92;;
67981;SDS011;64109;52.148;4.466;2023-02-01T10:13:31;9.68;;;1.85;;
67981;SDS011;64109;52.148;4.466;2023-02-01T10:16:12;6.53;;;1.48;;
67981;SDS011;64109;52.148;4.466;2023-02-01T10:26:22;6.95;;;1.63;;
67981;SDS011;64109;52.148;4.466;2023-02-01T10:28:50;12.32;;;1.98;;
67981;SDS011;64109;52.148;4.466;2023-02-01T10:31:17;9.88;;;1.92;;
67981;SDS011;64109;52.148;4.466;2023-02-01T10:33:44;10.10;;;2.17;;
67981;SDS011;64109;52.148;4.466;2023-02-01T10:36:13;10.68;;;1.90;;
67981;SDS011;64109;52.148;4.466;2023-02-01T10:38:42;13.70;;;2.17;;
67981;SDS011;64109;52.148;4.466;2023-02-01T10:41:18;9.77;;;2.00;;
67981;SDS011;64109;52.148;4.466;2023-02-01T10:43:46;7.35;;;1.92;;
67981;SDS011;64109;52.148;4.466;2023-02-01T10:46:13;9.30;;;1.80;;
67981;SDS011;64109;52.148;4.466;2023-02-01T10:48:39;15.40;;;1.98;;
67981;SDS011;64109;52.148;4.466;2023-02-01T10:51:07;7.63;;;1.65;;
67981;SDS011;64109;52.148;4.466;2023-02-01T10:53:41;9.60;;;1.88;;
67981;SDS011;64109;52.148;4.466;2023-02-01T10:56:12;5.70;;;1.20;;
67981;SDS011;64109;52.148;4.466;2023-02-01T10:58:45;10.05;;;1.80;;
67981;SDS011;64109;52.148;4.466;2023-02-01T11:01:18;7.93;;;2.10;;
67981;SDS011;64109;52.148;4.466;2023-02-01T11:04:04;9.90;;;1.83;;
67981;SDS011;64109;52.148;4.466;2023-02-01T11:06:33;9.95;;;1.67;;
67981;SDS011;64109;52.148;4.466;2023-02-01T11:11:28;10.10;;;1.70;;
67981;SDS011;64109;52.148;4.466;2023-02-01T11:13:55;9.02;;;2.22;;
67981;SDS011;64109;52.148;4.466;2023-02-01T11:16:23;8.95;;;1.48;;
67981;SDS011;64109;52.148;4.466;2023-02-01T11:18:54;4.57;;;1.23;;
67981;SDS011;64109;52.148;4.466;2023-02-01T11:21:20;8.40;;;2.28;;
67981;SDS011;64109;52.148;4.466;2023-02-01T11:23:47;7.28;;;2.70;;
67981;SDS011;64109;52.148;4.466;2023-02-01T11:26:14;6.10;;;1.77;;
67981;SDS011;64109;52.148;4.466;2023-02-01T11:28:40;7.13;;;2.58;;
67981;SDS011;64109;52.148;4.466;2023-02-01T11:31:11;11.02;;;1.85;;
67981;SDS011;64109;52.148;4.466;2023-02-01T11:33:39;6.18;;;1.67;;
67981;SDS011;64109;52.148;4.466;2023-02-01T11:36:13;9.90;;;1.92;;
67981;SDS011;64109;52.148;4.466;2023-02-01T11:38:40;7.07;;;2.03;;
67981;SDS011;64109;52.148;4.466;2023-02-01T11:41:12;6.90;;;1.58;;
67981;SDS011;64109;52.148;4.466;2023-02-01T11:43:50;7.15;;;1.77;;
67981;SDS011;64109;52.148;4.466;2023-02-01T11:46:17;7.28;;;1.65;;
67981;SDS011;64109;52.148;4.466;2023-02-01T11:48:49;5.55;;;1.70;;
67981;SDS011;64109;52.148;4.466;2023-02-01T12:40:13;10.55;;;2.35;;
67981;SDS011;64109;52.148;4.466;2023-02-01T12:43:29;9.07;;;2.00;;
67981;SDS011;64109;52.148;4.466;2023-02-01T12:45:41;12.25;;;2.00;;
67981;SDS011;64109;52.148;4.466;2023-02-01T12:48:16;13.00;;;2.17;;
67981;SDS011;64109;52.148;4.466;2023-02-01T12:50:47;15.55;;;2.50;;
67981;SDS011;64109;52.148;4.466;2023-02-01T12:53:15;12.95;;;2.20;;
67981;SDS011;64109;52.148;4.466;2023-02-01T12:55:49;10.82;;;2.72;;
67981;SDS011;64109;52.148;4.466;2023-02-01T12:58:18;14.95;;;2.00;;
67981;SDS011;64109;52.148;4.466;2023-02-01T13:00:48;10.98;;;2.38;;
67981;SDS011;64109;52.148;4.466;2023-02-01T13:06:04;13.07;;;1.95;;
67981;SDS011;64109;52.148;4.466;2023-02-01T13:08:48;13.07;;;2.10;;
67981;SDS011;64109;52.148;4.466;2023-02-01T13:11:18;7.30;;;1.65;;
67981;SDS011;64109;52.148;4.466;2023-02-01T13:13:50;12.57;;;3.50;;
67981;SDS011;64109;52.148;4.466;2023-02-01T13:16:39;11.35;;;1.90;;
67981;SDS011;64109;52.148;4.466;2023-02-01T13:21:33;10.82;;;2.30;;
67981;SDS011;64109;52.148;4.466;2023-02-01T13:24:00;15.07;;;2.67;;
67981;SDS011;64109;52.148;4.466;2023-02-01T13:26:26;15.05;;;2.00;;
67981;SDS011;64109;52.148;4.466;2023-02-01T13:29:25;11.45;;;2.35;;
67981;SDS011;64109;52.148;4.466;2023-02-01T13:36:59;9.85;;;2.42;;
67981;SDS011;64109;52.148;4.466;2023-02-01T13:41:56;10.35;;;2.47;;
67981;SDS011;64109;52.148;4.466;2023-02-01T13:44:26;14.30;;;2.65;;
67981;SDS011;64109;52.148;4.466;2023-02-01T13:46:54;12.05;;;2.30;;
67981;SDS011;64109;52.148;4.466;2023-02-01T13:49:23;8.32;;;2.33;;
67981;SDS011;64109;52.148;4.466;2023-02-01T13:51:51;11.63;;;2.40;;
67981;SDS011;64109;52.148;4.466;2023-02-01T13:54:36;9.98;;;2.17;;
67981;SDS011;64109;52.148;4.466;2023-02-01T13:57:03;10.32;;;2.22;;
67981;SDS011;64109;52.148;4.466;2023-02-01T14:04:50;9.07;;;1.88;;
67981;SDS011;64109;52.148;4.466;2023-02-01T14:07:21;10.70;;;1.80;;
67981;SDS011;64109;52.148;4.466;2023-02-01T14:09:47;9.23;;;1.92;;
67981;SDS011;64109;52.148;4.466;2023-02-01T14:15:18;7.88;;;1.60;;
67981;SDS011;64109;52.148;4.466;2023-02-01T14:17:46;5.88;;;1.65;;
67981;SDS011;64109;52.148;4.466;2023-02-01T14:23:03;5.80;;;1.23;;
67981;SDS011;64109;52.148;4.466;2023-02-01T14:25:32;9.38;;;2.00;;
67981;SDS011;64109;52.148;4.466;2023-02-01T14:27:59;6.43;;;1.75;;
67981;SDS011;64109;52.148;4.466;2023-02-01T14:30:25;10.93;;;2.00;;
67981;SDS011;64109;52.148;4.466;2023-02-01T14:32:51;7.10;;;1.60;;
67981;SDS011;64109;52.148;4.466;2023-02-01T14:35:26;5.43;;;1.58;;
67981;SDS011;64109;52.148;4.466;2023-02-01T14:37:53;9.38;;;2.40;;
67981;SDS011;64109;52.148;4.466;2023-02-01T14:40:20;7.53;;;1.75;;
67981;SDS011;64109;52.148;4.466;2023-02-01T14:42:49;9.57;;;1.90;;
67981;SDS011;64109;52.148;4.466;2023-02-01T14:47:50;6.85;;;1.40;;
67981;SDS011;64109;52.148;4.466;2023-02-01T14:52:50;8.45;;;1.80;;
67981;SDS011;64109;52.148;4.466;2023-02-01T14:55:21;7.38;;;1.50;;
67981;SDS011;64109;52.148;4.466;2023-02-01T14:57:50;6.45;;;1.77;;
67981;SDS011;64109;52.148;4.466;2023-02-01T15:00:23;10.27;;;2.33;;
67981;SDS011;64109;52.148;4.466;2023-02-01T15:02:49;9.32;;;1.98;;
67981;SDS011;64109;52.148;4.466;2023-02-01T15:05:22;10.05;;;2.15;;
67981;SDS011;64109;52.148;4.466;2023-02-01T15:07:48;6.57;;;2.15;;
67981;SDS011;64109;52.148;4.466;2023-02-01T15:10:15;11.18;;;2.35;;
67981;SDS011;64109;52.148;4.466;2023-02-01T15:12:42;7.60;;;1.60;;
67981;SDS011;64109;52.148;4.466;2023-02-01T15:15:16;7.32;;;1.67;;
67981;SDS011;64109;52.148;4.466;2023-02-01T15:18:03;7.65;;;1.52;;
67981;SDS011;64109;52.148;4.466;2023-02-01T15:20:30;7.75;;;1.92;;
67981;SDS011;64109;52.148;4.466;2023-02-01T15:25:26;8.13;;;2.08;;
67981;SDS011;64109;52.148;4.466;2023-02-01T15:27:53;11.10;;;2.10;;
67981;SDS011;64109;52.148;4.466;2023-02-01T15:30:21;7.57;;;2.03;;
67981;SDS011;64109;52.148;4.466;2023-02-01T15:32:47;6.20;;;1.83;;
67981;SDS011;64109;52.148;4.466;2023-02-01T15:40:58;6.70;;;1.80;;
67981;SDS011;64109;52.148;4.466;2023-02-01T15:43:25;9.23;;;1.73;;
67981;SDS011;64109;52.148;4.466;2023-02-01T15:45:51;6.68;;;2.38;;
67981;SDS011;64109;52.148;4.466;2023-02-01T15:48:21;7.70;;;2.10;;
67981;SDS011;64109;52.148;4.466;2023-02-01T15:50:48;10.00;;;2.15;;
67981;SDS011;64109;52.148;4.466;2023-02-01T15:53:19;8.20;;;2.95;;
67981;SDS011;64109;52.148;4.466;2023-02-01T15:55:46;9.38;;;2.47;;
67981;SDS011;64109;52.148;4.466;2023-02-01T15:58:17;8.57;;;2.28;;
67981;SDS011;64109;52.148;4.466;2023-02-01T16:03:39;8.52;;;2.15;;
67981;SDS011;64109;52.148;4.466;2023-02-01T16:06:07;9.20;;;2.25;;
67981;SDS011;64109;52.148;4.466;2023-02-01T16:08:34;7.35;;;2.38;;
67981;SDS011;64109;52.148;4.466;2023-02-01T16:11:25;9.10;;;2.08;;
67981;SDS011;64109;52.148;4.466;2023-02-01T16:13:48;7.47;;;1.98;;
67981;SDS011;64109;52.148;4.466;2023-02-01T16:16:14;7.72;;;1.92;;
67981;SDS011;64109;52.148;4.466;2023-02-01T16:18:40;6.57;;;1.75;;
67981;SDS011;64109;52.148;4.466;2023-02-01T16:21:06;7.05;;;2.00;;
67981;SDS011;64109;52.148;4.466;2023-02-01T16:23:35;7.45;;;2.28;;
67981;SDS011;64109;52.148;4.466;2023-02-01T16:26:02;18.45;;;3.95;;
67981;SDS011;64109;52.148;4.466;2023-02-01T16:28:28;18.15;;;4.13;;
67981;SDS011;64109;52.148;4.466;2023-02-01T16:30:54;22.08;;;5.95;;
67981;SDS011;64109;52.148;4.466;2023-02-01T16:33:21;31.40;;;8.90;;
67981;SDS011;64109;52.148;4.466;2023-02-01T16:35:48;38.08;;;12.38;;
67981;SDS011;64109;52.148;4.466;2023-02-01T16:38:16;43.38;;;13.57;;
67981;SDS011;64109;52.148;4.466;2023-02-01T16:40:44;50.60;;;15.70;;
67981;SDS011;64109;52.148;4.466;2023-02-01T16:45:39;44.85;;;13.63;;
67981;SDS011;64109;52.148;4.466;2023-02-01T16:48:07;46.88;;;13.73;;
67981;SDS011;64109;52.148;4.466;2023-02-01T16:50:33;52.60;;;17.75;;
67981;SDS011;64109;52.148;4.466;2023-02-01T16:52:59;58.53;;;21.70;;
67981;SDS011;64109;52.148;4.466;2023-02-01T16:55:26;55.78;;;17.23;;
67981;SDS011;64109;52.148;4.466;2023-02-01T16:57:52;46.55;;;15.55;;
67981;SDS011;64109;52.148;4.466;2023-02-01T17:00:18;49.90;;;15.88;;
67981;SDS011;64109;52.148;4.466;2023-02-01T17:02:45;39.80;;;15.32;;
67981;SDS011;64109;52.148;4.466;2023-02-01T17:05:11;44.15;;;17.23;;
67981;SDS011;64109;52.148;4.466;2023-02-01T17:07:38;43.42;;;15.10;;
67981;SDS011;64109;52.148;4.466;2023-02-01T17:10:05;46.33;;;14.48;;
67981;SDS011;64109;52.148;4.466;2023-02-01T17:12:31;48.70;;;15.05;;
67981;SDS011;64109;52.148;4.466;2023-02-01T17:14:58;51.28;;;18.83;;
67981;SDS011;64109;52.148;4.466;2023-02-01T17:17:25;43.88;;;14.50;;